sensor_id;sensor_type;location;lat;lon;timestamp;pressure;altitude;pressure_sealevel;temperature;humidity
24045;BME280;26257;49.442;8.422;2022-10-20T00:01:25;100777.47;;;16.14;100.00
24045;BME280;26257;49.442;8.422;2022-10-20T00:03:52;100779.22;;;16.18;100.00
24045;BME280;26257;49.442;8.422;2022-10-20T00:06:20;100777.69;;;15.78;100.00
24045;BME280;26257;49.442;8.422;2022-10-20T00:08:46;100788.34;;;15.81;100.00
24045;BME280;26257;49.442;8.422;2022-10-20T00:11:14;100779.41;;;15.91;100.00
24045;BME280;26257;49.442;8.422;2022-10-20T00:13:42;100762.53;;;15.92;100.00
24045;BME280;26257;49.442;8.422;2022-10-20T00:16:08;100762.50;;;15.95;100.00
24045;BME280;26257;49.442;8.422;2022-10-20T00:18:34;100760.81;;;15.77;100.00
24045;BME280;26257;49.442;8.422;2022-10-20T00:20:59;100767.88;;;15.86;100.00
24045;BME280;26257;49.442;8.422;2022-10-20T00:23:25;100762.63;;;15.77;100.00
24045;BME280;26257;49.442;8.422;2022-10-20T00:26:09;100759.91;;;15.83;100.00
24045;BME280;26257;49.442;8.422;2022-10-20T00:28:34;100762.63;;;15.77;100.00
24045;BME280;26257;49.442;8.422;2022-10-20T00:31:00;100760.00;;;15.71;100.00
24045;BME280;26257;49.442;8.422;2022-10-20T00:33:26;100761.72;;;15.81;100.00
24045;BME280;26257;49.442;8.422;2022-10-20T00:35:51;100764.53;;;15.54;100.00
24045;BME280;26257;49.442;8.422;2022-10-20T00:38:17;100763.66;;;15.42;100.00
24045;BME280;26257;49.442;8.422;2022-10-20T00:40:43;100764.50;;;15.58;100.00
24045;BME280;26257;49.442;8.422;2022-10-20T00:43:11;100757.44;;;15.53;100.00
24045;BME280;26257;49.442;8.422;2022-10-20T00:45:36;100749.44;;;15.59;100.00
24045;BME280;26257;49.442;8.422;2022-10-20T00:48:24;100744.06;;;15.62;100.00
24045;BME280;26257;49.442;8.422;2022-10-20T00:50:53;100743.25;;;15.54;100.00
24045;BME280;26257;49.442;8.422;2022-10-20T00:53:23;100752.91;;;15.65;100.00
24045;BME280;26257;49.442;8.422;2022-10-20T00:55:53;100739.66;;;15.58;100.00
24045;BME280;26257;49.442;8.422;2022-10-20T00:58:19;100737.00;;;15.52;100.00
24045;BME280;26257;49.442;8.422;2022-10-20T01:03:25;100728.16;;;15.53;100.00
24045;BME280;26257;49.442;8.422;2022-10-20T01:05:52;100722.00;;;15.34;100.00
24045;BME280;26257;49.442;8.422;2022-10-20T01:08:17;100715.72;;;15.52;100.00
24045;BME280;26257;49.442;8.422;2022-10-20T01:19:44;100719.34;;;15.35;100.00
24045;BME280;26257;49.442;8.422;2022-10-20T01:27:36;100714.00;;;15.40;100.00
24045;BME280;26257;49.442;8.422;2022-10-20T01:30:06;100708.66;;;15.38;100.00
24045;BME280;26257;49.442;8.422;2022-10-20T01:35:54;100701.56;;;15.40;100.00
24045;BME280;26257;49.442;8.422;2022-10-20T01:40:53;100687.59;;;14.93;100.00
24045;BME280;26257;49.442;8.422;2022-10-20T01:43:24;100693.81;;;14.86;100.00
24045;BME280;26257;49.442;8.422;2022-10-20T01:45:52;100686.78;;;14.77;100.00
24045;BME280;26257;49.442;8.422;2022-10-20T01:48:22;100690.09;;;15.23;100.00
24045;BME280;26257;49.442;8.422;2022-10-20T01:50:49;100680.38;;;15.21;100.00
24045;BME280;26257;49.442;8.422;2022-10-20T01:53:15;100689.34;;;15.00;100.00
24045;BME280;26257;49.442;8.422;2022-10-20T01:55:40;100678.63;;;15.12;100.00
24045;BME280;26257;49.442;8.422;2022-10-20T02:00:41;100677.69;;;15.21;100.00
24045;BME280;26257;49.442;8.422;2022-10-20T02:11:17;100664.31;;;15.34;100.00
24045;BME280;26257;49.442;8.422;2022-10-20T02:13:45;100667.84;;;15.36;100.00
24045;BME280;26257;49.442;8.422;2022-10-20T02:16:18;100664.41;;;15.19;100.00
24045;BME280;26257;49.442;8.422;2022-10-20T02:18:46;100660.81;;;15.29;100.00
24045;BME280;26257;49.442;8.422;2022-10-20T02:21:11;100657.28;;;15.24;100.00
24045;BME280;26257;49.442;8.422;2022-10-20T02:23:39;100661.75;;;15.19;100.00
24045;BME280;26257;49.442;8.422;2022-10-20T02:26:08;100666.22;;;15.11;100.00
24045;BME280;26257;49.442;8.422;2022-10-20T02:28:38;100662.69;;;15.09;100.00
24045;BME280;26257;49.442;8.422;2022-10-20T02:31:05;100654.59;;;15.29;100.00
24045;BME280;26257;49.442;8.422;2022-10-20T02:33:31;100645.81;;;15.13;100.00
24045;BME280;26257;49.442;8.422;2022-10-20T02:35:58;100653.69;;;15.31;100.00
24045;BME280;26257;49.442;8.422;2022-10-20T02:38:24;100641.44;;;15.06;100.00
24045;BME280;26257;49.442;8.422;2022-10-20T02:40:50;100636.94;;;15.10;100.00
24045;BME280;26257;49.442;8.422;2022-10-20T02:43:15;100644.00;;;15.15;100.00
24045;BME280;26257;49.442;8.422;2022-10-20T02:45:41;100667.25;;;14.78;100.00
24045;BME280;26257;49.442;8.422;2022-10-20T03:08:35;100690.41;;;14.07;100.00
24045;BME280;26257;49.442;8.422;2022-10-20T03:11:00;100673.56;;;14.12;100.00
24045;BME280;26257;49.442;8.422;2022-10-20T03:13:25;100671.72;;;14.63;100.00
24045;BME280;26257;49.442;8.422;2022-10-20T03:15:51;100657.53;;;14.70;100.00
24045;BME280;26257;49.442;8.422;2022-10-20T03:18:16;100647.72;;;14.89;100.00
24045;BME280;26257;49.442;8.422;2022-10-20T03:20:42;100650.34;;;14.96;100.00
24045;BME280;26257;49.442;8.422;2022-10-20T03:23:08;100629.22;;;14.54;100.00
24045;BME280;26257;49.442;8.422;2022-10-20T03:25:33;100650.38;;;14.87;100.00
24045;BME280;26257;49.442;8.422;2022-10-20T03:27:59;100647.78;;;14.72;100.00
24045;BME280;26257;49.442;8.422;2022-10-20T03:30:24;100630.97;;;14.64;100.00
24045;BME280;26257;49.442;8.422;2022-10-20T03:32:50;100630.13;;;14.42;100.00
24045;BME280;26257;49.442;8.422;2022-10-20T03:35:15;100623.03;;;14.26;100.00
24045;BME280;26257;49.442;8.422;2022-10-20T03:37:40;100632.88;;;13.89;100.00
24045;BME280;26257;49.442;8.422;2022-10-20T03:40:06;100620.44;;;14.34;100.00
24045;BME280;26257;49.442;8.422;2022-10-20T03:42:32;100608.00;;;14.49;100.00
24045;BME280;26257;49.442;8.422;2022-10-20T03:44:57;100605.28;;;14.60;100.00
24045;BME280;26257;49.442;8.422;2022-10-20T03:47:23;100599.13;;;14.52;100.00
24045;BME280;26257;49.442;8.422;2022-10-20T03:49:48;100603.59;;;14.36;100.00
24045;BME280;26257;49.442;8.422;2022-10-20T03:52:13;100602.56;;;14.72;100.00
24045;BME280;26257;49.442;8.422;2022-10-20T03:54:40;100593.81;;;14.49;100.00
24045;BME280;26257;49.442;8.422;2022-10-20T03:57:06;100590.28;;;14.32;100.00
24045;BME280;26257;49.442;8.422;2022-10-20T03:59:32;100608.75;;;14.74;100.00
24045;BME280;26257;49.442;8.422;2022-10-20T04:01:57;100611.44;;;14.68;100.00
24045;BME280;26257;49.442;8.422;2022-10-20T04:04:23;100615.94;;;14.51;100.00
24045;BME280;26257;49.442;8.422;2022-10-20T04:06:48;100618.50;;;14.75;100.00
24045;BME280;26257;49.442;8.422;2022-10-20T04:09:16;100619.44;;;14.66;100.00
24045;BME280;26257;49.442;8.422;2022-10-20T04:11:42;100607.97;;;14.57;100.00
24045;BME280;26257;49.442;8.422;2022-10-20T04:14:19;100617.72;;;14.50;100.00
24045;BME280;26257;49.442;8.422;2022-10-20T04:16:44;100607.97;;;14.51;100.00
24045;BME280;26257;49.442;8.422;2022-10-20T04:19:10;100608.78;;;14.69;100.00
24045;BME280;26257;49.442;8.422;2022-10-20T04:21:35;100598.13;;;14.68;100.00
24045;BME280;26257;49.442;8.422;2022-10-20T04:24:00;100588.28;;;14.90;100.00
24045;BME280;26257;49.442;8.422;2022-10-20T04:26:29;100576.00;;;14.63;100.00
24045;BME280;26257;49.442;8.422;2022-10-20T04:28:59;100576.13;;;14.39;100.00
24045;BME280;26257;49.442;8.422;2022-10-20T04:31:27;100572.63;;;14.06;100.00
24045;BME280;26257;49.442;8.422;2022-10-20T04:33:52;100567.22;;;14.46;100.00
24045;BME280;26257;49.442;8.422;2022-10-20T04:36:18;100567.19;;;14.53;100.00
24045;BME280;26257;49.442;8.422;2022-10-20T04:38:43;100562.63;;;14.86;100.00
24045;BME280;26257;49.442;8.422;2022-10-20T04:41:09;100565.22;;;14.93;100.00
24045;BME280;26257;49.442;8.422;2022-10-20T04:43:34;100557.28;;;14.87;100.00
24045;BME280;26257;49.442;8.422;2022-10-20T04:46:04;100561.69;;;14.90;100.00
24045;BME280;26257;49.442;8.422;2022-10-20T04:48:30;100563.66;;;14.53;100.00
24045;BME280;26257;49.442;8.422;2022-10-20T04:51:05;100559.13;;;14.74;100.00
24045;BME280;26257;49.442;8.422;2022-10-20T04:53:32;100563.63;;;14.65;100.00
24045;BME280;26257;49.442;8.422;2022-10-20T04:55:57;100563.56;;;14.68;100.00
24045;BME280;26257;49.442;8.422;2022-10-20T04:58:24;100556.50;;;14.64;100.00
24045;BME280;26257;49.442;8.422;2022-10-20T05:00:50;100556.50;;;14.64;100.00
24045;BME280;26257;49.442;8.422;2022-10-20T05:03:16;100538.78;;;14.63;100.00
24045;BME280;26257;49.442;8.422;2022-10-20T05:05:53;100549.41;;;14.63;100.00
24045;BME280;26257;49.442;8.422;2022-10-20T05:08:26;100555.72;;;14.47;100.00
24045;BME280;26257;49.442;8.422;2022-10-20T05:11:03;100560.94;;;14.60;100.00
24045;BME280;26257;49.442;8.422;2022-10-20T05:13:31;100546.78;;;14.64;100.00
24045;BME280;26257;49.442;8.422;2022-10-20T05:15:56;100530.06;;;14.35;100.00
24045;BME280;26257;49.442;8.422;2022-10-20T05:18:46;100533.53;;;14.54;100.00
24045;BME280;26257;49.442;8.422;2022-10-20T05:21:16;100524.66;;;14.50;100.00
24045;BME280;26257;49.442;8.422;2022-10-20T05:23:42;100523.69;;;14.75;100.00
24045;BME280;26257;49.442;8.422;2022-10-20T05:26:11;100530.03;;;14.37;100.00
24045;BME280;26257;49.442;8.422;2022-10-20T05:28:45;100531.81;;;14.41;100.00
24045;BME280;26257;49.442;8.422;2022-10-20T05:31:13;100530.00;;;14.47;100.00
24045;BME280;26257;49.442;8.422;2022-10-20T05:34:01;100531.84;;;14.26;100.00
24045;BME280;26257;49.442;8.422;2022-10-20T05:36:26;100523.81;;;14.39;100.00
24045;BME280;26257;49.442;8.422;2022-10-20T05:38:55;100522.97;;;14.23;100.00
24045;BME280;26257;49.442;8.422;2022-10-20T05:41:29;100512.44;;;13.99;100.00
24045;BME280;26257;49.442;8.422;2022-10-20T05:44:01;100509.69;;;14.28;100.00
24045;BME280;26257;49.442;8.422;2022-10-20T05:46:29;100510.47;;;14.56;100.00
24045;BME280;26257;49.442;8.422;2022-10-20T05:49:00;100522.03;;;14.49;100.00
24045;BME280;26257;49.442;8.422;2022-10-20T05:51:28;100522.97;;;14.33;100.00
24045;BME280;26257;49.442;8.422;2022-10-20T05:53:57;100517.66;;;14.27;100.00
24045;BME280;26257;49.442;8.422;2022-10-20T05:56:33;100513.22;;;14.30;100.00
24045;BME280;26257;49.442;8.422;2022-10-20T05:59:01;100495.47;;;14.44;100.00
24045;BME280;26257;49.442;8.422;2022-10-20T06:01:34;100501.66;;;14.42;100.00
24045;BME280;26257;49.442;8.422;2022-10-20T06:04:20;100511.47;;;14.21;100.00
24045;BME280;26257;49.442;8.422;2022-10-20T06:06:52;100513.28;;;14.13;100.00
24045;BME280;26257;49.442;8.422;2022-10-20T06:09:21;100515.09;;;14.02;100.00
24045;BME280;26257;49.442;8.422;2022-10-20T06:11:49;100522.97;;;14.36;100.00
24045;BME280;26257;49.442;8.422;2022-10-20T06:14:18;100523.88;;;14.36;100.00
24045;BME280;26257;49.442;8.422;2022-10-20T06:16:51;100526.44;;;14.50;100.00
24045;BME280;26257;49.442;8.422;2022-10-20T06:19:17;100529.94;;;14.55;100.00
24045;BME280;26257;49.442;8.422;2022-10-20T06:21:51;100541.53;;;14.42;100.00
24045;BME280;26257;49.442;8.422;2022-10-20T06:24:17;100557.53;;;14.33;100.00
24045;BME280;26257;49.442;8.422;2022-10-20T06:26:43;100563.78;;;13.92;100.00
24045;BME280;26257;49.442;8.422;2022-10-20T06:29:14;100566.41;;;14.15;100.00
24045;BME280;26257;49.442;8.422;2022-10-20T06:31:48;100571.69;;;14.44;100.00
24045;BME280;26257;49.442;8.422;2022-10-20T06:34:22;100563.72;;;14.32;100.00
24045;BME280;26257;49.442;8.422;2022-10-20T06:36:49;100572.53;;;14.52;100.00
24045;BME280;26257;49.442;8.422;2022-10-20T06:39:20;100580.44;;;14.70;100.00
24045;BME280;26257;49.442;8.422;2022-10-20T06:41:52;100565.38;;;14.63;100.00
24045;BME280;26257;49.442;8.422;2022-10-20T06:44:22;100576.88;;;14.69;100.00
24045;BME280;26257;49.442;8.422;2022-10-20T06:46:53;100576.88;;;14.72;100.00
24045;BME280;26257;49.442;8.422;2022-10-20T06:49:19;100575.03;;;14.79;100.00
24045;BME280;26257;49.442;8.422;2022-10-20T06:51:45;100577.88;;;14.40;100.00
24045;BME280;26257;49.442;8.422;2022-10-20T06:54:10;100581.41;;;14.30;100.00
24045;BME280;26257;49.442;8.422;2022-10-20T06:56:36;100586.63;;;14.69;100.00
24045;BME280;26257;49.442;8.422;2022-10-20T06:59:03;100568.75;;;14.98;100.00
24045;BME280;26257;49.442;8.422;2022-10-20T07:01:30;100566.94;;;15.00;100.00
24045;BME280;26257;49.442;8.422;2022-10-20T07:03:59;100564.31;;;14.96;100.00
24045;BME280;26257;49.442;8.422;2022-10-20T07:06:33;100559.06;;;14.88;100.00
24045;BME280;26257;49.442;8.422;2022-10-20T07:09:00;100545.75;;;14.91;100.00
24045;BME280;26257;49.442;8.422;2022-10-20T07:11:29;100542.06;;;15.12;100.00
24045;BME280;26257;49.442;8.422;2022-10-20T07:13:57;100540.78;;;15.64;100.00
24045;BME280;26257;49.442;8.422;2022-10-20T07:16:24;100549.97;;;15.22;100.00
24045;BME280;26257;49.442;8.422;2022-10-20T07:18:51;100559.72;;;15.17;100.00
24045;BME280;26257;49.442;8.422;2022-10-20T07:21:18;100561.06;;;15.79;100.00
24045;BME280;26257;49.442;8.422;2022-10-20T07:23:45;100552.38;;;15.56;100.00
24045;BME280;26257;49.442;8.422;2022-10-20T07:28:39;100560.19;;;15.77;100.00
24045;BME280;26257;49.442;8.422;2022-10-20T07:31:08;100556.28;;;16.11;100.00
24045;BME280;26257;49.442;8.422;2022-10-20T07:33:34;100548.81;;;16.40;100.00
24045;BME280;26257;49.442;8.422;2022-10-20T07:35:59;100560.09;;;15.87;100.00
24045;BME280;26257;49.442;8.422;2022-10-20T07:38:25;100550.41;;;15.76;100.00
24045;BME280;26257;49.442;8.422;2022-10-20T07:40:51;100558.34;;;15.80;100.00
24045;BME280;26257;49.442;8.422;2022-10-20T07:43:16;100559.44;;;15.61;100.00
24045;BME280;26257;49.442;8.422;2022-10-20T07:45:41;100557.91;;;16.26;100.00
24045;BME280;26257;49.442;8.422;2022-10-20T07:48:07;100548.56;;;16.64;100.00
24045;BME280;26257;49.442;8.422;2022-10-20T07:50:35;100545.47;;;16.95;97.09
24045;BME280;26257;49.442;8.422;2022-10-20T07:53:01;100529.31;;;17.04;94.37
24045;BME280;26257;49.442;8.422;2022-10-20T07:55:27;100523.59;;;16.70;97.89
24045;BME280;26257;49.442;8.422;2022-10-20T07:57:52;100530.41;;;16.91;97.86
24045;BME280;26257;49.442;8.422;2022-10-20T08:00:18;100531.09;;;17.05;94.50
24045;BME280;26257;49.442;8.422;2022-10-20T08:02:43;100539.47;;;16.78;95.68
24045;BME280;26257;49.442;8.422;2022-10-20T08:05:11;100549.44;;;16.63;95.99
24045;BME280;26257;49.442;8.422;2022-10-20T08:07:36;100538.63;;;16.74;92.97
24045;BME280;26257;49.442;8.422;2022-10-20T08:10:02;100538.06;;;17.15;91.65
24045;BME280;26257;49.442;8.422;2022-10-20T08:12:28;100543.25;;;17.24;90.78
24045;BME280;26257;49.442;8.422;2022-10-20T08:14:53;100540.81;;;17.65;87.60
24045;BME280;26257;49.442;8.422;2022-10-20T08:17:18;100550.31;;;17.28;90.40
24045;BME280;26257;49.442;8.422;2022-10-20T08:19:44;100557.56;;;17.75;86.78
24045;BME280;26257;49.442;8.422;2022-10-20T08:22:09;100554.38;;;16.94;91.61
24045;BME280;26257;49.442;8.422;2022-10-20T08:24:36;100539.91;;;17.10;93.83
24045;BME280;26257;49.442;8.422;2022-10-20T08:27:01;100522.22;;;17.03;95.55
24045;BME280;26257;49.442;8.422;2022-10-20T08:29:27;100523.00;;;17.08;96.17
24045;BME280;26257;49.442;8.422;2022-10-20T08:31:53;100531.38;;;16.85;99.82
24045;BME280;26257;49.442;8.422;2022-10-20T08:34:18;100524.00;;;17.57;93.26
24045;BME280;26257;49.442;8.422;2022-10-20T08:36:43;100532.59;;;17.76;88.70
24045;BME280;26257;49.442;8.422;2022-10-20T08:39:09;100517.91;;;18.01;86.48
24045;BME280;26257;49.442;8.422;2022-10-20T08:41:42;100517.34;;;17.82;87.17
24045;BME280;26257;49.442;8.422;2022-10-20T08:44:22;100516.28;;;17.93;86.15
24045;BME280;26257;49.442;8.422;2022-10-20T08:46:50;100507.41;;;18.35;84.43
24045;BME280;26257;49.442;8.422;2022-10-20T08:49:24;100518.44;;;18.63;81.86
24045;BME280;26257;49.442;8.422;2022-10-20T09:08:49;100546.47;;;18.42;94.82
24045;BME280;26257;49.442;8.422;2022-10-20T09:11:29;100538.13;;;18.14;91.29
24045;BME280;26257;49.442;8.422;2022-10-20T09:13:56;100546.13;;;18.60;86.91
24045;BME280;26257;49.442;8.422;2022-10-20T09:16:28;100542.72;;;18.93;83.65
24045;BME280;26257;49.442;8.422;2022-10-20T09:18:59;100544.91;;;19.15;79.80
24045;BME280;26257;49.442;8.422;2022-10-20T09:21:25;100547.34;;;19.25;79.03
24045;BME280;26257;49.442;8.422;2022-10-20T09:23:54;100531.13;;;19.31;78.23
24045;BME280;26257;49.442;8.422;2022-10-20T09:26:34;100537.78;;;20.52;73.98
24045;BME280;26257;49.442;8.422;2022-10-20T09:29:21;100526.75;;;21.19;67.20
24045;BME280;26257;49.442;8.422;2022-10-20T09:31:49;100530.06;;;21.27;66.84
24045;BME280;26257;49.442;8.422;2022-10-20T09:34:29;100522.88;;;21.54;65.61
24045;BME280;26257;49.442;8.422;2022-10-20T09:42:24;100505.59;;;21.89;63.68
24045;BME280;26257;49.442;8.422;2022-10-20T09:44:57;100503.34;;;21.49;65.84
24045;BME280;26257;49.442;8.422;2022-10-20T09:47:25;100504.94;;;21.81;65.57
24045;BME280;26257;49.442;8.422;2022-10-20T09:50:05;100509.88;;;21.42;67.17
24045;BME280;26257;49.442;8.422;2022-10-20T09:52:34;100510.31;;;21.81;65.07
24045;BME280;26257;49.442;8.422;2022-10-20T09:55:34;100505.53;;;21.90;65.10
24045;BME280;26257;49.442;8.422;2022-10-20T09:58:02;100499.47;;;21.84;66.92
24045;BME280;26257;49.442;8.422;2022-10-20T10:00:35;100507.63;;;21.56;66.26
24045;BME280;26257;49.442;8.422;2022-10-20T10:03:19;100505.88;;;21.53;67.54
24045;BME280;26257;49.442;8.422;2022-10-20T10:05:56;100496.94;;;20.41;77.37
24045;BME280;26257;49.442;8.422;2022-10-20T10:08:27;100498.28;;;19.60;84.64
24045;BME280;26257;49.442;8.422;2022-10-20T10:11:04;100489.31;;;20.56;80.35
24045;BME280;26257;49.442;8.422;2022-10-20T10:13:41;100494.09;;;21.04;78.92
24045;BME280;26257;49.442;8.422;2022-10-20T10:16:09;100494.41;;;21.48;72.63
24045;BME280;26257;49.442;8.422;2022-10-20T10:18:37;100488.28;;;21.70;70.83
24045;BME280;26257;49.442;8.422;2022-10-20T10:21:08;100478.03;;;21.81;70.37
24045;BME280;26257;49.442;8.422;2022-10-20T10:23:35;100452.41;;;21.97;69.19
24045;BME280;26257;49.442;8.422;2022-10-20T10:29:04;100459.56;;;22.91;64.27
24045;BME280;26257;49.442;8.422;2022-10-20T10:31:31;100457.31;;;23.45;61.95
24045;BME280;26257;49.442;8.422;2022-10-20T10:34:25;100459.44;;;24.38;59.00
24045;BME280;26257;49.442;8.422;2022-10-20T10:36:56;100436.13;;;25.29;55.10
24045;BME280;26257;49.442;8.422;2022-10-20T10:39:22;100432.19;;;25.17;53.65
24045;BME280;26257;49.442;8.422;2022-10-20T10:42:06;100429.25;;;24.67;54.53
24045;BME280;26257;49.442;8.422;2022-10-20T10:50:37;100431.13;;;24.08;55.43
24045;BME280;26257;49.442;8.422;2022-10-20T10:58:46;100441.97;;;21.62;67.84
24045;BME280;26257;49.442;8.422;2022-10-20T11:01:33;100445.47;;;21.13;72.49
24045;BME280;26257;49.442;8.422;2022-10-20T11:04:39;100453.78;;;20.76;75.76
24045;BME280;26257;49.442;8.422;2022-10-20T11:10:03;100452.25;;;20.40;80.60
24045;BME280;26257;49.442;8.422;2022-10-20T11:26:32;100428.16;;;20.66;85.05
24045;BME280;26257;49.442;8.422;2022-10-20T11:29:00;100430.34;;;20.53;84.38
24045;BME280;26257;49.442;8.422;2022-10-20T11:31:51;100427.81;;;20.18;86.95
24045;BME280;26257;49.442;8.422;2022-10-20T11:34:39;100424.09;;;20.23;87.92
24045;BME280;26257;49.442;8.422;2022-10-20T11:37:19;100421.91;;;20.38;86.71
24045;BME280;26257;49.442;8.422;2022-10-20T11:42:24;100431.38;;;20.18;88.99
24045;BME280;26257;49.442;8.422;2022-10-20T11:44:53;100432.97;;;20.55;87.65
24045;BME280;26257;49.442;8.422;2022-10-20T11:47:40;100445.13;;;20.39;87.92
24045;BME280;26257;49.442;8.422;2022-10-20T11:50:11;100445.22;;;20.36;88.53
24045;BME280;26257;49.442;8.422;2022-10-20T11:58:22;100449.94;;;19.95;94.01
24045;BME280;26257;49.442;8.422;2022-10-20T12:04:03;100446.78;;;20.43;91.17
24045;BME280;26257;49.442;8.422;2022-10-20T12:12:09;100437.59;;;20.20;92.56
24045;BME280;26257;49.442;8.422;2022-10-20T12:14:38;100435.25;;;20.08;92.74
24045;BME280;26257;49.442;8.422;2022-10-20T12:17:11;100434.91;;;20.20;93.61
24045;BME280;26257;49.442;8.422;2022-10-20T12:19:38;100440.31;;;19.88;95.50
24045;BME280;26257;49.442;8.422;2022-10-20T12:24:43;100416.53;;;20.38;92.07
24045;BME280;26257;49.442;8.422;2022-10-20T12:27:25;100410.25;;;20.39;92.42
24045;BME280;26257;49.442;8.422;2022-10-20T12:29:59;100398.41;;;20.46;91.57
24045;BME280;26257;49.442;8.422;2022-10-20T12:34:59;100374.91;;;20.24;95.38
24045;BME280;26257;49.442;8.422;2022-10-20T12:40:14;100392.72;;;20.55;93.76
24045;BME280;26257;49.442;8.422;2022-10-20T12:42:47;100408.38;;;20.70;92.62
24045;BME280;26257;49.442;8.422;2022-10-20T12:47:47;100404.31;;;20.57;93.49
24045;BME280;26257;49.442;8.422;2022-10-20T12:50:34;100396.03;;;20.63;91.96
24045;BME280;26257;49.442;8.422;2022-10-20T12:53:13;100400.69;;;20.58;92.24
24045;BME280;26257;49.442;8.422;2022-10-20T12:55:47;100402.78;;;20.48;93.41
24045;BME280;26257;49.442;8.422;2022-10-20T13:05:58;100368.91;;;20.44;93.28
24045;BME280;26257;49.442;8.422;2022-10-20T13:08:29;100363.88;;;20.33;94.21
24045;BME280;26257;49.442;8.422;2022-10-20T13:13:52;100372.41;;;20.74;89.69
24045;BME280;26257;49.442;8.422;2022-10-20T13:16:21;100367.75;;;20.80;88.96
24045;BME280;26257;49.442;8.422;2022-10-20T13:18:47;100371.22;;;21.10;86.36
24045;BME280;26257;49.442;8.422;2022-10-20T13:24:11;100356.25;;;21.02;88.66
24045;BME280;26257;49.442;8.422;2022-10-20T13:26:45;100349.88;;;20.79;90.31
24045;BME280;26257;49.442;8.422;2022-10-20T13:29:18;100335.50;;;21.08;89.54
24045;BME280;26257;49.442;8.422;2022-10-20T13:34:46;100352.38;;;21.12;91.09
24045;BME280;26257;49.442;8.422;2022-10-20T13:45:18;100381.25;;;20.20;100.00
24045;BME280;26257;49.442;8.422;2022-10-20T13:50:35;100369.22;;;20.33;100.00
24045;BME280;26257;49.442;8.422;2022-10-20T13:53:12;100381.88;;;20.30;100.00
24045;BME280;26257;49.442;8.422;2022-10-20T13:55:56;100379.75;;;20.10;100.00
24045;BME280;26257;49.442;8.422;2022-10-20T13:58:23;100376.00;;;20.17;100.00
24045;BME280;26257;49.442;8.422;2022-10-20T14:01:15;100365.72;;;20.31;100.00
24045;BME280;26257;49.442;8.422;2022-10-20T14:03:45;100372.78;;;20.36;100.00
24045;BME280;26257;49.442;8.422;2022-10-20T14:08:54;100398.59;;;20.09;100.00
24045;BME280;26257;49.442;8.422;2022-10-20T14:11:21;100388.06;;;20.32;100.00
24045;BME280;26257;49.442;8.422;2022-10-20T14:13:47;100375.06;;;20.48;99.12
24045;BME280;26257;49.442;8.422;2022-10-20T14:16:18;100377.53;;;20.26;100.00
24045;BME280;26257;49.442;8.422;2022-10-20T14:18:58;100372.69;;;20.39;99.94
24045;BME280;26257;49.442;8.422;2022-10-20T14:21:24;100365.75;;;20.59;98.41
24045;BME280;26257;49.442;8.422;2022-10-20T14:23:55;100373.50;;;20.41;99.92
24045;BME280;26257;49.442;8.422;2022-10-20T14:26:25;100356.38;;;20.45;100.00
24045;BME280;26257;49.442;8.422;2022-10-20T14:28:51;100363.56;;;20.15;100.00
24045;BME280;26257;49.442;8.422;2022-10-20T14:31:21;100370.19;;;20.33;100.00
24045;BME280;26257;49.442;8.422;2022-10-20T14:33:47;100361.03;;;20.09;100.00
24045;BME280;26257;49.442;8.422;2022-10-20T14:36:21;100357.00;;;20.53;100.00
24045;BME280;26257;49.442;8.422;2022-10-20T14:38:48;100359.28;;;20.37;100.00
24045;BME280;26257;49.442;8.422;2022-10-20T14:41:34;100337.94;;;20.62;100.00
24045;BME280;26257;49.442;8.422;2022-10-20T14:44:02;100339.69;;;20.89;96.46
24045;BME280;26257;49.442;8.422;2022-10-20T14:46:58;100327.50;;;20.79;97.92
24045;BME280;26257;49.442;8.422;2022-10-20T14:49:31;100332.66;;;20.59;96.71
24045;BME280;26257;49.442;8.422;2022-10-20T14:52:02;100328.06;;;20.35;100.00
24045;BME280;26257;49.442;8.422;2022-10-20T14:54:37;100322.47;;;20.70;99.46
24045;BME280;26257;49.442;8.422;2022-10-20T14:59:34;100322.31;;;20.74;99.43
24045;BME280;26257;49.442;8.422;2022-10-20T15:02:09;100313.44;;;20.45;100.00
24045;BME280;26257;49.442;8.422;2022-10-20T15:04:41;100312.53;;;20.72;100.00
24045;BME280;26257;49.442;8.422;2022-10-20T15:07:15;100319.41;;;20.80;98.55
24045;BME280;26257;49.442;8.422;2022-10-20T15:09:44;100316.13;;;20.97;96.29
24045;BME280;26257;49.442;8.422;2022-10-20T15:14:45;100313.25;;;20.77;97.30
24045;BME280;26257;49.442;8.422;2022-10-20T15:22:55;100301.31;;;20.33;100.00
24045;BME280;26257;49.442;8.422;2022-10-20T15:25:21;100300.41;;;20.60;100.00
24045;BME280;26257;49.442;8.422;2022-10-20T15:27:47;100307.16;;;20.98;99.21
24045;BME280;26257;49.442;8.422;2022-10-20T15:30:20;100302.53;;;20.77;100.00
24045;BME280;26257;49.442;8.422;2022-10-20T15:32:46;100305.88;;;20.83;100.00
24045;BME280;26257;49.442;8.422;2022-10-20T15:35:17;100311.16;;;20.33;100.00
24045;BME280;26257;49.442;8.422;2022-10-20T15:37:47;100307.78;;;20.54;100.00
24045;BME280;26257;49.442;8.422;2022-10-20T15:40:13;100313.09;;;20.81;98.74
24045;BME280;26257;49.442;8.422;2022-10-20T15:42:38;100327.31;;;20.57;100.00
24045;BME280;26257;49.442;8.422;2022-10-20T15:45:33;100321.09;;;20.57;100.00
24045;BME280;26257;49.442;8.422;2022-10-20T15:47:59;100313.88;;;20.59;100.00
24045;BME280;26257;49.442;8.422;2022-10-20T15:50:24;100321.09;;;20.57;100.00
24045;BME280;26257;49.442;8.422;2022-10-20T15:52:50;100314.69;;;20.61;100.00
24045;BME280;26257;49.442;8.422;2022-10-20T15:55:29;100330.13;;;20.26;100.00